Alsbach, Germany

12:21 AM CEST on August 26, 2016 (GMT +0200)
Mörikeweg | | Change Station

Elev 1046 ft 48.73 °N, 9.39 °E | Updated 6 minutes ago

Clear
Clear
72.7 °F
Feels Like 77 °F
N
0.6
Wind Variable Wind from East
Gusts 1.9 mph

Today
High -- | Low -- °F
--% Chance of Precip.
Yesterday
High -- | Low -- °F
Precip. -- in
Pressure 30.06 in
Visibility -9999.0 miles
Clouds
Heat Index 77 °F
Dew Point 56 °F
Humidity 56%
Rainfall in
Snow Depth Not available.
6:31 AM 8:16 PM
Last Quarter, 41% visible
METAR EDDS 252150Z VRB01KT CAVOK 21/15 Q1018
Pressure 30.06 in
Visibility -9999.0 miles
Clouds
Heat Index 77 °F
Dew Point 56 °F
Humidity 56%
Rainfall in
Snow Depth Not available.
6:31 AM 8:16 PM
Last Quarter, 41% visible
METAR EDDS 252150Z VRB01KT CAVOK 21/15 Q1018

10-Day Weather Forecast

×

Almanac

Astronomy

Aug. 26, 2016 Rise Set
Actual Time
Civil Twilight
Nautical Twilight
Astronomical Twilight
Moon
Length of Visible Light
Length of Day
Tomorrow will be .
, % of the Moon is Illuminated

Today's Extremes

Country Highs Country Lows

Community

WunderPhotos

Upload Photos

1,934,952 photos uploaded!

WunderBlog® & News

Nearby

Air Quality

  Air Quality AQ Index Pollutant
Not available.

Snow Depth

Station Depth Elevation

Earthquake Activity

City Distance Mag. Time & Date
Minimum magnitude displayed is 2.5.

Coastal Water Temperatures

Place Temperature

Stations

Nearby Weather Stations

Station Location Temp. Windchill Dew Point Humidity Wind Precip. Elev Updated Type